createdAt,value
2019-04-05T00:00:41.861Z,995.88
2019-04-05T00:01:41.852Z,995.88
2019-04-05T00:02:41.899Z,995.89
2019-04-05T00:03:41.828Z,995.90
2019-04-05T00:04:41.813Z,995.90
2019-04-05T00:05:41.801Z,995.89
2019-04-05T00:06:41.801Z,995.87
2019-04-05T00:07:41.782Z,995.88
2019-04-05T00:08:41.766Z,995.86
2019-04-05T00:09:41.756Z,995.91
2019-04-05T00:10:41.752Z,995.87
2019-04-05T00:11:41.759Z,995.85
2019-04-05T00:12:41.724Z,995.85
2019-04-05T00:13:41.717Z,995.89
2019-04-05T00:14:41.703Z,995.87
2019-04-05T00:15:41.694Z,995.93
2019-04-05T00:16:41.691Z,995.92
2019-04-05T00:17:41.668Z,995.89
2019-04-05T00:18:41.659Z,995.92
2019-04-05T00:19:41.654Z,995.92
2019-04-05T00:20:41.635Z,995.95
2019-04-05T00:21:41.643Z,995.95
2019-04-05T00:22:41.614Z,995.97
2019-04-05T00:23:41.604Z,995.99
2019-04-05T00:24:41.596Z,995.95
2019-04-05T00:25:41.582Z,995.95
2019-04-05T00:26:41.581Z,995.95
2019-04-05T00:27:41.567Z,995.97
2019-04-05T00:28:41.553Z,995.92
2019-04-05T00:29:41.539Z,995.97
2019-04-05T00:30:41.531Z,995.97
2019-04-05T00:31:41.531Z,995.96
2019-04-05T00:32:41.511Z,995.97
2019-04-05T00:33:41.495Z,996.00
2019-04-05T00:34:41.483Z,995.98
2019-04-05T00:35:41.476Z,995.98
2019-04-05T00:36:41.473Z,995.98
2019-04-05T00:37:41.455Z,995.97
2019-04-05T00:38:41.440Z,995.97
2019-04-05T00:39:41.437Z,996.09
2019-04-05T00:40:41.419Z,995.98
2019-04-05T00:41:41.416Z,996.02
2019-04-05T00:42:41.402Z,996.03
2019-04-05T00:43:41.388Z,996.01
2019-04-05T00:44:41.374Z,996.02
2019-04-05T00:45:41.366Z,996.02
2019-04-05T00:46:41.363Z,996.02
2019-04-05T00:47:41.344Z,996.03
2019-04-05T00:48:41.342Z,996.00
2019-04-05T00:49:41.323Z,996.01
2019-04-05T00:50:41.312Z,995.99
2019-04-05T00:51:41.308Z,995.97
2019-04-05T00:52:41.295Z,996.01
2019-04-05T00:53:41.282Z,996.03
2019-04-05T00:54:41.269Z,996.01
2019-04-05T00:55:41.256Z,996.02
2019-04-05T00:56:41.257Z,996.00
2019-04-05T00:57:41.233Z,996.02
2019-04-05T00:58:41.220Z,996.02
2019-04-05T00:59:41.215Z,996.01
2019-04-05T01:00:41.201Z,995.97
2019-04-05T01:01:41.211Z,995.98
2019-04-05T01:02:41.182Z,996.00
2019-04-05T01:03:41.167Z,996.05
2019-04-05T01:04:41.157Z,996.02
2019-04-05T01:05:41.149Z,996.03
2019-04-05T01:06:41.145Z,996.02
2019-04-05T01:07:41.123Z,995.98
2019-04-05T01:08:41.113Z,996.03
2019-04-05T01:09:41.105Z,996.01
2019-04-05T01:10:41.094Z,995.99
2019-04-05T01:11:41.091Z,996.02
2019-04-05T01:12:41.068Z,996.06
2019-04-05T01:13:41.057Z,996.07
2019-04-05T01:14:41.049Z,996.10
2019-04-05T01:15:41.441Z,996.09
2019-04-05T01:16:41.031Z,996.07
2019-04-05T01:17:41.014Z,996.12
2019-04-05T01:18:41.001Z,996.08
2019-04-05T01:19:40.990Z,996.08
2019-04-05T01:20:40.982Z,996.13
2019-04-05T01:21:40.981Z,996.15
2019-04-05T01:22:40.966Z,996.12
2019-04-05T01:23:42.630Z,996.16
2019-04-05T01:24:40.940Z,996.12
2019-04-05T01:25:40.927Z,996.17
2019-04-05T01:26:40.924Z,996.15
2019-04-05T01:27:40.904Z,996.20
2019-04-05T01:28:40.896Z,996.21
2019-04-05T01:29:40.883Z,996.24
2019-04-05T01:30:40.870Z,996.25
2019-04-05T01:31:40.868Z,996.27
2019-04-05T01:32:40.852Z,996.29
2019-04-05T01:33:40.842Z,996.29
2019-04-05T01:34:40.828Z,996.30
2019-04-05T01:35:40.816Z,996.31
2019-04-05T01:36:40.813Z,996.30
2019-04-05T01:37:40.795Z,996.35
2019-04-05T01:38:40.782Z,996.35
2019-04-05T01:39:40.772Z,996.35
2019-04-05T01:40:40.770Z,996.32
2019-04-05T01:41:40.760Z,996.38
2019-04-05T01:42:40.738Z,996.39
2019-04-05T01:43:40.730Z,996.42
2019-04-05T01:44:40.716Z,996.34
2019-04-05T01:45:52.702Z,996.42
2019-04-05T01:46:41.703Z,996.41
2019-04-05T01:47:40.684Z,996.38
2019-04-05T01:48:40.736Z,996.38
2019-04-05T01:49:40.662Z,996.37
2019-04-05T01:50:40.656Z,996.37
2019-04-05T01:51:40.648Z,996.39
2019-04-05T01:52:40.631Z,996.36
2019-04-05T01:53:40.618Z,996.40
2019-04-05T01:54:40.610Z,996.42
2019-04-05T01:55:40.597Z,996.44
2019-04-05T01:56:40.627Z,996.44
2019-04-05T01:57:40.588Z,996.45
2019-04-05T01:58:40.565Z,996.41
2019-04-05T01:59:40.551Z,996.43
2019-04-05T02:00:40.542Z,996.40
2019-04-05T02:01:40.560Z,996.34
2019-04-05T02:02:40.522Z,996.37
2019-04-05T02:03:40.508Z,996.42
2019-04-05T02:04:40.498Z,996.36
2019-04-05T02:05:40.486Z,996.37
2019-04-05T02:06:40.474Z,996.35
2019-04-05T02:07:40.475Z,996.37
2019-04-05T02:08:40.515Z,996.38
2019-04-05T02:09:40.444Z,996.41
2019-04-05T02:10:40.431Z,996.42
2019-04-05T02:11:40.422Z,996.44
2019-04-05T02:12:40.420Z,996.46
2019-04-05T02:13:40.398Z,996.48
2019-04-05T02:14:40.391Z,996.47
2019-04-05T02:15:40.378Z,996.45
2019-04-05T02:16:40.365Z,996.47
2019-04-05T02:17:40.363Z,996.47
2019-04-05T02:18:40.346Z,996.46
2019-04-05T02:19:40.335Z,996.50
2019-04-05T02:20:40.321Z,996.49
2019-04-05T02:21:40.311Z,996.52
2019-04-05T02:22:40.316Z,996.49
2019-04-05T02:23:40.288Z,996.54
2019-04-05T02:24:40.278Z,996.54
2019-04-05T02:25:40.270Z,996.50
2019-04-05T02:26:40.256Z,996.45
2019-04-05T02:27:40.254Z,996.51
2019-04-05T02:28:40.234Z,996.50
2019-04-05T02:29:40.223Z,996.51
2019-04-05T02:30:40.215Z,996.49
2019-04-05T02:31:40.207Z,996.53
2019-04-05T02:32:40.290Z,996.53
2019-04-05T02:33:40.195Z,996.53
2019-04-05T02:34:40.185Z,996.51
2019-04-05T02:35:40.253Z,996.57
2019-04-05T02:36:40.157Z,996.56
2019-04-05T02:37:40.147Z,996.56
2019-04-05T02:38:40.124Z,996.53
2019-04-05T02:39:40.114Z,996.54
2019-04-05T02:40:40.112Z,996.55
2019-04-05T02:41:40.097Z,996.53
2019-04-05T02:42:40.089Z,996.61
2019-04-05T02:43:40.075Z,996.53
2019-04-05T02:44:40.060Z,996.59
2019-04-05T02:45:40.052Z,996.56
2019-04-05T02:46:40.048Z,996.58
2019-04-05T02:47:40.039Z,996.55
2019-04-05T02:48:40.020Z,996.56
2019-04-05T02:49:40.003Z,996.56
2019-04-05T02:50:40.001Z,996.57
2019-04-05T02:51:39.984Z,996.57
2019-04-05T02:52:39.983Z,996.57
2019-04-05T02:53:39.981Z,996.53
2019-04-05T02:54:39.952Z,996.55
2019-04-05T02:55:39.939Z,996.58
2019-04-05T02:56:39.929Z,996.57
2019-04-05T02:57:39.930Z,996.60
2019-04-05T02:58:39.986Z,996.59
2019-04-05T02:59:39.904Z,996.59
2019-04-05T03:00:39.891Z,996.61
2019-04-05T03:01:39.876Z,996.57
2019-04-05T03:02:39.885Z,996.57
2019-04-05T03:03:39.858Z,996.54
2019-04-05T03:04:39.843Z,996.56
2019-04-05T03:05:39.834Z,996.58
2019-04-05T03:06:39.818Z,996.60
2019-04-05T03:07:39.816Z,996.59
2019-04-05T03:08:39.806Z,996.59
2019-04-05T03:09:39.806Z,996.52
2019-04-05T03:10:39.774Z,996.60
2019-04-05T03:11:39.767Z,996.52
2019-04-05T03:12:39.765Z,996.58
2019-04-05T03:13:39.742Z,996.59
2019-04-05T03:14:39.730Z,996.57
2019-04-05T03:15:39.721Z,996.54
2019-04-05T03:16:41.644Z,996.54
2019-04-05T03:17:39.713Z,996.54
2019-04-05T03:18:39.708Z,996.59
2019-04-05T03:19:39.681Z,996.56
2019-04-05T03:20:39.692Z,996.56
2019-04-05T03:21:39.655Z,996.59
2019-04-05T03:22:39.659Z,996.60
2019-04-05T03:23:39.637Z,996.66
2019-04-05T03:24:39.627Z,996.66
2019-04-05T03:25:39.624Z,996.71
2019-04-05T03:26:39.605Z,996.70
2019-04-05T03:27:39.607Z,996.75
2019-04-05T03:28:39.586Z,996.71
2019-04-05T03:29:39.587Z,996.73
2019-04-05T03:30:39.568Z,996.72
2019-04-05T03:31:39.564Z,996.76
2019-04-05T03:32:39.548Z,996.73
2019-04-05T03:33:39.534Z,996.74
2019-04-05T03:34:39.515Z,996.70
2019-04-05T03:35:39.507Z,996.74
2019-04-05T03:36:39.494Z,996.76
2019-04-05T03:37:39.496Z,996.78
2019-04-05T03:38:39.535Z,996.80
2019-04-05T03:39:39.463Z,996.76
2019-04-05T03:40:39.453Z,996.85
2019-04-05T03:41:39.454Z,996.89
2019-04-05T03:42:39.442Z,996.84
2019-04-05T03:43:39.419Z,996.86
2019-04-05T03:44:39.409Z,996.86
2019-04-05T03:45:39.397Z,996.91
2019-04-05T03:46:54.791Z,996.90
2019-04-05T03:47:40.387Z,996.88
2019-04-05T03:48:39.369Z,996.90
2019-04-05T03:49:39.355Z,996.90
2019-04-05T03:50:39.347Z,996.83
2019-04-05T03:51:39.334Z,996.83
2019-04-05T03:52:39.331Z,996.83
2019-04-05T03:53:39.351Z,996.86
2019-04-05T03:54:39.311Z,996.84
2019-04-05T03:55:39.290Z,996.89
2019-04-05T03:56:39.281Z,996.88
2019-04-05T03:57:39.280Z,996.87
2019-04-05T03:58:39.262Z,996.87
2019-04-05T03:59:39.250Z,996.89
2019-04-05T04:00:39.248Z,996.92
2019-04-05T04:01:39.227Z,996.92
2019-04-05T04:02:39.230Z,996.91
2019-04-05T04:03:39.208Z,996.95
2019-04-05T04:04:39.193Z,996.89
2019-04-05T04:05:39.189Z,996.95
2019-04-05T04:06:39.172Z,996.93
2019-04-05T04:07:39.173Z,996.95
2019-04-05T04:08:39.150Z,996.96
2019-04-05T04:09:39.139Z,997.03
2019-04-05T04:10:39.131Z,997.04
2019-04-05T04:11:39.132Z,997.01
2019-04-05T04:12:39.147Z,997.01
2019-04-05T04:13:39.097Z,996.97
2019-04-05T04:14:39.085Z,997.05
2019-04-05T04:15:39.092Z,997.06
2019-04-05T04:16:39.064Z,997.02
2019-04-05T04:17:39.070Z,997.01
2019-04-05T04:18:39.051Z,997.09
2019-04-05T04:19:39.033Z,997.05
2019-04-05T04:20:39.041Z,997.13
2019-04-05T04:21:39.013Z,997.13
2019-04-05T04:22:39.000Z,997.04
2019-04-05T04:23:39.025Z,997.16
2019-04-05T04:24:39.048Z,997.16
2019-04-05T04:25:38.971Z,997.13
2019-04-05T04:26:38.960Z,997.13
2019-04-05T04:27:38.956Z,997.18
2019-04-05T04:28:38.945Z,997.15
2019-04-05T04:29:38.934Z,997.19
2019-04-05T04:30:38.938Z,997.24
2019-04-05T04:31:38.909Z,997.24
2019-04-05T04:32:38.896Z,997.26
2019-04-05T04:33:38.899Z,997.29
2019-04-05T04:34:38.970Z,997.29
2019-04-05T04:35:38.862Z,997.28
2019-04-05T04:36:38.852Z,997.36
2019-04-05T04:37:38.849Z,997.36
2019-04-05T04:38:38.852Z,997.36
2019-04-05T04:39:38.823Z,997.37
2019-04-05T04:40:38.809Z,997.35
2019-04-05T04:41:38.799Z,997.40
2019-04-05T04:42:38.855Z,997.41
2019-04-05T04:43:38.791Z,997.44
2019-04-05T04:44:38.765Z,997.44
2019-04-05T04:45:38.753Z,997.49
2019-04-05T04:46:38.746Z,997.46
2019-04-05T04:47:38.733Z,997.45
2019-04-05T04:48:38.732Z,997.52
2019-04-05T04:49:38.711Z,997.55
2019-04-05T04:50:38.702Z,997.53
2019-04-05T04:51:38.689Z,997.55
2019-04-05T04:52:38.678Z,997.55
2019-04-05T04:53:38.677Z,997.57
2019-04-05T04:54:38.658Z,997.57
2019-04-05T04:55:38.656Z,997.59
2019-04-05T04:56:38.638Z,997.63
2019-04-05T04:57:38.624Z,997.63
2019-04-05T04:58:38.630Z,997.63
2019-04-05T04:59:38.605Z,997.62
2019-04-05T05:00:38.596Z,997.67
2019-04-05T05:01:38.585Z,997.66
2019-04-05T05:02:38.578Z,997.71
2019-04-05T05:03:38.571Z,997.72
2019-04-05T05:04:38.552Z,997.76
2019-04-05T05:05:38.543Z,997.79
2019-04-05T05:06:38.529Z,997.75
2019-04-05T05:07:38.523Z,997.68
2019-04-05T05:08:38.529Z,997.71
2019-04-05T05:09:38.496Z,997.68
2019-04-05T05:10:38.486Z,997.69
2019-04-05T05:11:38.478Z,997.74
2019-04-05T05:12:38.468Z,997.76
2019-04-05T05:13:38.464Z,997.78
2019-04-05T05:14:38.443Z,997.79
2019-04-05T05:15:38.434Z,997.78
2019-04-05T05:16:38.422Z,997.80
2019-04-05T05:17:39.102Z,997.80
2019-04-05T05:18:38.408Z,997.78
2019-04-05T05:19:38.388Z,997.81
2019-04-05T05:20:38.377Z,997.77
2019-04-05T05:21:38.369Z,997.82
2019-04-05T05:22:38.357Z,997.80
2019-04-05T05:23:38.357Z,997.80
2019-04-05T05:24:38.334Z,997.87
2019-04-05T05:25:38.325Z,997.87
2019-04-05T05:26:38.315Z,997.91
2019-04-05T05:27:38.303Z,997.89
2019-04-05T05:28:38.299Z,997.95
2019-04-05T05:29:38.280Z,997.86
2019-04-05T05:30:38.270Z,997.91
2019-04-05T05:31:38.265Z,997.90
2019-04-05T05:32:38.245Z,997.88
2019-04-05T05:33:38.245Z,997.95
2019-04-05T05:34:38.233Z,997.96
2019-04-05T05:35:38.215Z,997.89
2019-04-05T05:36:38.213Z,997.92
2019-04-05T05:37:38.193Z,997.95
2019-04-05T05:38:38.192Z,997.91
2019-04-05T05:39:38.171Z,997.91
2019-04-05T05:40:38.161Z,998.01
2019-04-05T05:41:38.150Z,998.02
2019-04-05T05:42:38.143Z,998.03
2019-04-05T05:43:38.141Z,998.02
2019-04-05T05:44:38.116Z,998.03
2019-04-05T05:45:38.105Z,998.09
2019-04-05T05:46:38.094Z,998.08
2019-04-05T05:47:50.758Z,998.13
2019-04-05T05:48:39.094Z,998.10
2019-04-05T05:49:38.063Z,998.20
2019-04-05T05:50:38.050Z,998.19
2019-04-05T05:51:38.045Z,998.16
2019-04-05T05:52:38.029Z,998.21
2019-04-05T05:53:38.027Z,998.16
2019-04-05T05:54:38.019Z,998.19
2019-04-05T05:55:38.002Z,998.25
2019-04-05T05:56:37.985Z,998.26
2019-04-05T05:57:37.975Z,998.25
2019-04-05T05:58:37.966Z,998.22
2019-04-05T05:59:37.962Z,998.23
2019-04-05T06:00:37.941Z,998.23
2019-04-05T06:01:37.933Z,998.28
2019-04-05T06:02:38.888Z,998.23
2019-04-05T06:03:37.911Z,998.30
2019-04-05T06:04:37.906Z,998.25
2019-04-05T06:05:37.887Z,998.31
2019-04-05T06:06:37.956Z,998.34
2019-04-05T06:07:37.866Z,998.34
2019-04-05T06:08:37.858Z,998.33
2019-04-05T06:09:37.860Z,998.36
2019-04-05T06:10:37.833Z,998.34
2019-04-05T06:11:37.824Z,998.44
2019-04-05T06:12:37.813Z,998.48
2019-04-05T06:13:37.803Z,998.54
2019-04-05T06:14:37.801Z,998.56
2019-04-05T06:15:37.822Z,998.58
2019-04-05T06:16:46.204Z,998.58
2019-04-05T06:17:38.755Z,998.61
2019-04-05T06:18:37.746Z,998.58
2019-04-05T06:19:37.747Z,998.67
2019-04-05T06:20:37.724Z,998.65
2019-04-05T06:21:37.719Z,998.58
2019-04-05T06:22:37.704Z,998.68
2019-04-05T06:23:37.697Z,998.64
2019-04-05T06:24:37.690Z,998.61
2019-04-05T06:25:37.671Z,998.59
2019-04-05T06:26:37.657Z,998.62
2019-04-05T06:27:37.655Z,998.67
2019-04-05T06:28:37.742Z,998.68
2019-04-05T06:29:37.640Z,998.71
2019-04-05T06:30:37.615Z,998.72
2019-04-05T06:31:37.605Z,998.66
2019-04-05T06:32:37.598Z,998.71
2019-04-05T06:33:37.583Z,998.75
2019-04-05T06:34:37.582Z,998.68
2019-04-05T06:35:37.562Z,998.71
2019-04-05T06:36:37.550Z,998.76
2019-04-05T06:37:37.546Z,998.71
2019-04-05T06:38:37.531Z,998.77
2019-04-05T06:39:37.528Z,998.80
2019-04-05T06:40:41.187Z,998.79
2019-04-05T06:41:37.500Z,998.76
2019-04-05T06:42:37.487Z,998.79
2019-04-05T06:43:37.480Z,998.79
2019-04-05T06:44:37.476Z,998.82
2019-04-05T06:45:37.459Z,998.80
2019-04-05T06:46:37.446Z,998.75
2019-04-05T06:47:37.445Z,998.74
2019-04-05T06:48:37.437Z,998.76
2019-04-05T06:49:37.426Z,998.81
2019-04-05T06:50:37.404Z,998.86
2019-04-05T06:51:37.393Z,998.86
2019-04-05T06:52:37.386Z,998.90
2019-04-05T06:53:37.375Z,998.94
2019-04-05T06:54:37.370Z,998.89
2019-04-05T06:55:37.351Z,998.88
2019-04-05T06:56:37.339Z,998.92
2019-04-05T06:57:37.329Z,998.94
2019-04-05T06:58:37.323Z,998.95
2019-04-05T06:59:37.317Z,998.94
2019-04-05T07:00:37.299Z,998.94
2019-04-05T07:01:37.287Z,998.90
2019-04-05T07:02:37.277Z,998.93
2019-04-05T07:03:37.266Z,998.96
2019-04-05T07:04:37.283Z,999.01
2019-04-05T07:05:37.245Z,998.99
2019-04-05T07:06:37.237Z,999.01
2019-04-05T07:07:37.227Z,999.02
2019-04-05T07:08:37.214Z,999.04
2019-04-05T07:09:37.214Z,999.01
2019-04-05T07:10:37.201Z,998.99
2019-04-05T07:11:37.188Z,999.01
2019-04-05T07:12:37.183Z,999.03
2019-04-05T07:13:37.162Z,999.02
2019-04-05T07:14:37.166Z,999.03
2019-04-05T07:15:37.147Z,999.05
2019-04-05T07:16:37.140Z,999.09
2019-04-05T07:17:37.122Z,999.06
2019-04-05T07:18:37.112Z,999.05
2019-04-05T07:19:37.110Z,999.03
2019-04-05T07:20:37.092Z,999.10
2019-04-05T07:21:37.080Z,999.05
2019-04-05T07:22:39.415Z,999.05
2019-04-05T07:23:37.064Z,999.13
2019-04-05T07:24:37.058Z,999.10
2019-04-05T07:25:37.041Z,999.13
2019-04-05T07:26:37.033Z,999.09
2019-04-05T07:27:37.018Z,999.09
2019-04-05T07:28:37.006Z,999.13
2019-04-05T07:29:37.004Z,999.16
2019-04-05T07:30:36.986Z,999.12
2019-04-05T07:31:36.975Z,999.14
2019-04-05T07:32:36.964Z,999.18
2019-04-05T07:33:36.960Z,999.20
2019-04-05T07:34:36.957Z,999.20
2019-04-05T07:35:37.039Z,999.18
2019-04-05T07:36:36.922Z,999.30
2019-04-05T07:37:36.911Z,999.28
2019-04-05T07:38:36.908Z,999.30
2019-04-05T07:39:36.902Z,999.39
2019-04-05T07:40:36.879Z,999.34
2019-04-05T07:41:36.867Z,999.36
2019-04-05T07:42:36.856Z,999.31
2019-04-05T07:43:36.845Z,999.33
2019-04-05T07:44:36.850Z,999.40
2019-04-05T07:45:36.827Z,999.42
2019-04-05T07:46:36.814Z,999.44
2019-04-05T07:47:36.802Z,999.43
2019-04-05T07:48:44.599Z,999.50
2019-04-05T07:49:37.790Z,999.54
2019-04-05T07:50:36.771Z,999.53
2019-04-05T07:51:36.767Z,999.58
2019-04-05T07:52:36.748Z,999.60
2019-04-05T07:53:36.738Z,999.60
2019-04-05T07:54:36.736Z,999.62
2019-04-05T07:55:36.719Z,999.62
2019-04-05T07:56:36.712Z,999.62
2019-04-05T07:57:36.697Z,999.66
2019-04-05T07:58:36.686Z,999.67
2019-04-05T07:59:36.681Z,999.71
2019-04-05T08:00:36.663Z,999.74
2019-04-05T08:01:36.650Z,999.78
2019-04-05T08:02:36.642Z,999.76
2019-04-05T08:03:36.637Z,999.72
2019-04-05T08:04:36.628Z,999.78
2019-04-05T08:05:36.608Z,999.74
2019-04-05T08:06:36.597Z,999.73
2019-04-05T08:07:36.586Z,999.78
2019-04-05T08:08:36.583Z,999.83
2019-04-05T08:09:36.579Z,999.81
2019-04-05T08:10:36.554Z,999.84
2019-04-05T08:11:36.545Z,999.86
2019-04-05T08:12:36.535Z,999.85
2019-04-05T08:13:36.521Z,999.81
2019-04-05T08:14:36.519Z,999.82
2019-04-05T08:15:36.500Z,999.84
2019-04-05T08:16:36.491Z,999.84
2019-04-05T08:17:36.475Z,999.82
2019-04-05T08:18:36.466Z,999.81
2019-04-05T08:19:36.468Z,999.77
2019-04-05T08:20:36.450Z,999.87
2019-04-05T08:21:36.442Z,999.87
2019-04-05T08:22:36.427Z,999.90
2019-04-05T08:23:36.414Z,999.86
2019-04-05T08:24:36.444Z,999.85
2019-04-05T08:25:36.389Z,999.80
2019-04-05T08:26:36.378Z,999.77
2019-04-05T08:27:36.371Z,999.76
2019-04-05T08:28:36.358Z,999.84
2019-04-05T08:29:36.346Z,999.78
2019-04-05T08:30:36.346Z,999.84
2019-04-05T08:31:36.325Z,999.85
2019-04-05T08:32:36.318Z,999.86
2019-04-05T08:33:36.655Z,999.90
2019-04-05T08:34:36.291Z,999.88
2019-04-05T08:35:36.293Z,999.88
2019-04-05T08:36:36.270Z,999.90
2019-04-05T08:37:36.261Z,999.83
2019-04-05T08:38:36.247Z,999.86
2019-04-05T08:39:36.237Z,999.87
2019-04-05T08:40:36.239Z,999.94
2019-04-05T08:41:36.214Z,999.94
2019-04-05T08:42:36.208Z,999.87
2019-04-05T08:43:36.191Z,999.86
2019-04-05T08:44:36.182Z,999.87
2019-04-05T08:45:36.183Z,999.84
2019-04-05T08:46:36.163Z,999.86
2019-04-05T08:47:36.148Z,999.89
2019-04-05T08:48:36.142Z,999.85
2019-04-05T08:49:36.128Z,999.87
2019-04-05T08:50:36.122Z,999.92
2019-04-05T08:51:36.103Z,999.95
2019-04-05T08:52:36.093Z,999.95
2019-04-05T08:53:36.085Z,999.96
2019-04-05T08:54:36.974Z,999.89
2019-04-05T08:55:36.069Z,999.92
2019-04-05T08:56:36.048Z,999.91
2019-04-05T08:57:36.036Z,999.93
2019-04-05T08:58:36.026Z,999.89
2019-04-05T08:59:36.017Z,999.86
2019-04-05T09:00:36.018Z,999.86
2019-04-05T09:01:35.992Z,999.87
2019-04-05T09:02:36.016Z,999.87
2019-04-05T09:03:35.975Z,999.89
2019-04-05T09:04:35.962Z,999.88
2019-04-05T09:05:35.959Z,999.93
2019-04-05T09:06:35.940Z,999.89
2019-04-05T09:07:35.926Z,999.89
2019-04-05T09:08:35.918Z,999.92
2019-04-05T09:09:35.906Z,999.90
2019-04-05T09:10:35.902Z,999.92
2019-04-05T09:11:35.889Z,999.95
2019-04-05T09:12:35.871Z,999.98
2019-04-05T09:13:35.864Z,999.94
2019-04-05T09:14:35.851Z,999.98
2019-04-05T09:15:35.852Z,999.98
2019-04-05T09:16:35.833Z,999.97
2019-04-05T09:17:35.822Z,999.94
2019-04-05T09:18:35.806Z,999.97
2019-04-05T09:19:35.797Z,999.96
2019-04-05T09:20:35.795Z,999.95
2019-04-05T09:21:40.344Z,999.99
2019-04-05T09:22:36.761Z,999.98
2019-04-05T09:23:35.761Z,1000.01
2019-04-05T09:24:35.743Z,1000.05
2019-04-05T09:25:35.739Z,1000.12
2019-04-05T09:26:35.723Z,1000.08
2019-04-05T09:27:35.714Z,1000.11
2019-04-05T09:28:35.703Z,1000.09
2019-04-05T09:29:35.688Z,1000.14
2019-04-05T09:30:35.686Z,1000.12
2019-04-05T09:31:35.714Z,1000.13
2019-04-05T09:32:36.672Z,1000.12
2019-04-05T09:33:35.643Z,1000.19
2019-04-05T09:34:35.634Z,1000.20
2019-04-05T09:35:35.636Z,1000.25
2019-04-05T09:36:35.611Z,1000.22
2019-04-05T09:37:35.600Z,1000.20
2019-04-05T09:38:35.592Z,1000.18
2019-04-05T09:39:35.591Z,1000.16
2019-04-05T09:40:35.581Z,1000.19
2019-04-05T09:41:35.577Z,1000.23
2019-04-05T09:42:35.545Z,1000.27
2019-04-05T09:43:35.535Z,1000.23
2019-04-05T09:44:35.531Z,1000.34
2019-04-05T09:45:35.522Z,1000.36
2019-04-05T09:46:45.997Z,1000.33
2019-04-05T09:47:36.492Z,1000.37
2019-04-05T09:48:35.482Z,1000.45
2019-04-05T09:49:37.100Z,1000.34
2019-04-05T09:50:35.470Z,1000.29
2019-04-05T09:51:35.454Z,1000.28
2019-04-05T09:52:35.448Z,1000.34
2019-04-05T09:53:35.426Z,1000.32
2019-04-05T09:54:35.416Z,1000.37
2019-04-05T09:55:35.418Z,1000.41
2019-04-05T09:56:35.397Z,1000.36
2019-04-05T09:57:35.383Z,1000.44
2019-04-05T09:58:35.373Z,1000.39
2019-04-05T09:59:35.433Z,1000.39
2019-04-05T10:00:35.359Z,1000.35
2019-04-05T10:01:35.349Z,1000.40
2019-04-05T10:02:35.339Z,1000.40
2019-04-05T10:03:35.323Z,1000.44
2019-04-05T10:04:35.307Z,1000.42
2019-04-05T10:05:35.319Z,1000.46
2019-04-05T10:06:35.291Z,1000.45
2019-04-05T10:07:35.281Z,1000.52
2019-04-05T10:08:35.265Z,1000.54
2019-04-05T10:09:35.257Z,1000.58
2019-04-05T10:10:35.250Z,1000.59
2019-04-05T10:11:35.233Z,1000.65
2019-04-05T10:12:35.224Z,1000.68
2019-04-05T10:13:35.209Z,1000.68
2019-04-05T10:14:35.204Z,1000.62
2019-04-05T10:15:35.200Z,1000.68
2019-04-05T10:16:35.177Z,1000.67
2019-04-05T10:17:35.166Z,1000.71
2019-04-05T10:18:35.154Z,1000.70
2019-04-05T10:19:35.146Z,1000.69
2019-04-05T10:20:35.144Z,1000.71
2019-04-05T10:21:35.123Z,1000.71
2019-04-05T10:22:35.110Z,1000.74
2019-04-05T10:23:35.101Z,1000.78
2019-04-05T10:24:35.139Z,1000.77
2019-04-05T10:25:35.094Z,1000.77
2019-04-05T10:26:35.067Z,1000.79
2019-04-05T10:27:35.057Z,1000.78
2019-04-05T10:28:35.051Z,1000.77
2019-04-05T10:29:35.036Z,1000.80
2019-04-05T10:30:35.034Z,1000.80
2019-04-05T10:31:35.018Z,1000.84
2019-04-05T10:32:35.007Z,1000.77
2019-04-05T10:33:34.992Z,1000.80
2019-04-05T10:34:34.983Z,1000.80
2019-04-05T10:35:34.983Z,1000.75
2019-04-05T10:36:34.959Z,1000.73
2019-04-05T10:37:34.950Z,1000.81
2019-04-05T10:38:34.944Z,1000.72
2019-04-05T10:39:34.927Z,1000.73
2019-04-05T10:40:34.926Z,1000.79
2019-04-05T10:41:34.905Z,1000.77
2019-04-05T10:42:34.899Z,1000.76
2019-04-05T10:43:34.888Z,1000.84
2019-04-05T10:44:34.878Z,1000.76
2019-04-05T10:45:34.861Z,1000.78
2019-04-05T10:46:34.861Z,1000.79
2019-04-05T10:47:34.842Z,1000.85
2019-04-05T10:48:35.530Z,1000.84
2019-04-05T10:49:34.828Z,1000.85
2019-04-05T10:50:34.808Z,1000.90
2019-04-05T10:51:34.806Z,1000.85
2019-04-05T10:52:34.786Z,1000.90
2019-04-05T10:53:34.776Z,1000.93
2019-04-05T10:54:34.770Z,1000.95
2019-04-05T10:55:34.757Z,1000.99
2019-04-05T10:56:34.757Z,1000.96
2019-04-05T10:57:34.733Z,1000.93
2019-04-05T10:58:34.724Z,1000.94
2019-04-05T10:59:34.711Z,1001.02
2019-04-05T11:00:34.700Z,1000.96
2019-04-05T11:01:34.706Z,1001.00
2019-04-05T11:02:34.679Z,1000.97
2019-04-05T11:03:34.672Z,1000.94
2019-04-05T11:04:34.657Z,1000.91
2019-04-05T11:05:34.647Z,1000.96
2019-04-05T11:06:34.644Z,1000.98
2019-04-05T11:07:35.191Z,1000.96
2019-04-05T11:08:34.616Z,1000.98
2019-04-05T11:09:34.603Z,1001.00
2019-04-05T11:10:34.592Z,1001.00
2019-04-05T11:11:34.591Z,1001.00
2019-04-05T11:12:34.576Z,1001.03
2019-04-05T11:13:34.567Z,1001.00
2019-04-05T11:14:34.547Z,1001.03
2019-04-05T11:15:34.541Z,1001.00
2019-04-05T11:16:34.536Z,1001.05
2019-04-05T11:17:34.516Z,1001.05
2019-04-05T11:18:34.537Z,1001.03
2019-04-05T11:19:36.375Z,1001.06
2019-04-05T11:20:34.485Z,1001.07
2019-04-05T11:21:34.480Z,1001.05
2019-04-05T11:22:34.460Z,1001.07
2019-04-05T11:23:34.456Z,1001.07
2019-04-05T11:24:34.440Z,1001.10
2019-04-05T11:25:34.428Z,1001.06
2019-04-05T11:26:34.429Z,1001.14
2019-04-05T11:27:34.405Z,1001.16
2019-04-05T11:28:34.395Z,1001.15
2019-04-05T11:29:34.386Z,1001.09
2019-04-05T11:30:34.383Z,1001.12
2019-04-05T11:31:34.370Z,1001.09
2019-04-05T11:32:34.355Z,1001.07
2019-04-05T11:33:34.341Z,1001.09
2019-04-05T11:34:34.331Z,1001.03
2019-04-05T11:35:34.322Z,1001.08
2019-04-05T11:36:34.323Z,1001.08
2019-04-05T11:37:34.299Z,1001.10
2019-04-05T11:38:34.289Z,1001.06
2019-04-05T11:39:34.275Z,1001.04
2019-04-05T11:40:34.268Z,1001.05
2019-04-05T11:41:34.261Z,1001.07
2019-04-05T11:42:34.243Z,1001.09
2019-04-05T11:43:34.233Z,1001.09
2019-04-05T11:44:34.223Z,1001.12
2019-04-05T11:45:34.209Z,1001.03
2019-04-05T11:46:34.208Z,1001.12
2019-04-05T11:47:34.191Z,1001.09
2019-04-05T11:48:34.176Z,1001.14
2019-04-05T11:49:34.165Z,1001.13
2019-04-05T11:50:35.012Z,1001.16
2019-04-05T11:51:34.154Z,1001.17
2019-04-05T11:52:34.133Z,1001.14
2019-04-05T11:53:34.124Z,1001.14
2019-04-05T11:54:34.111Z,1001.20
2019-04-05T11:55:34.100Z,1001.15
2019-04-05T11:56:34.100Z,1001.20
2019-04-05T11:57:34.083Z,1001.13
2019-04-05T11:58:34.069Z,1001.07
2019-04-05T11:59:34.056Z,1001.16
2019-04-05T12:00:34.044Z,1001.20
2019-04-05T12:01:34.048Z,1001.24
2019-04-05T12:02:34.021Z,1001.22
2019-04-05T12:03:34.012Z,1001.16
2019-04-05T12:04:33.999Z,1001.19
2019-04-05T12:05:33.994Z,1001.11
2019-04-05T12:06:35.249Z,1001.20
2019-04-05T12:07:33.968Z,1001.18
2019-04-05T12:08:33.955Z,1001.16
2019-04-05T12:09:33.949Z,1001.17
2019-04-05T12:10:33.938Z,1001.16
2019-04-05T12:11:33.933Z,1001.19
2019-04-05T12:12:33.914Z,1001.15
2019-04-05T12:13:33.902Z,1001.16
2019-04-05T12:14:34.498Z,1001.19
2019-04-05T12:15:35.779Z,1001.16
2019-04-05T12:16:35.981Z,1001.18
2019-04-05T12:17:35.301Z,1001.25
2019-04-05T12:18:34.810Z,1001.21
2019-04-05T12:19:33.834Z,1001.20
2019-04-05T12:20:47.393Z,1001.24
2019-04-05T12:21:35.489Z,1001.23
2019-04-05T12:22:34.942Z,1001.20